createdAt,value
2022-08-25T00:00:41.920Z,97.49
2022-08-25T00:01:41.811Z,97.49
2022-08-25T00:02:55.589Z,97.60
2022-08-25T00:03:42.780Z,97.39
2022-08-25T00:04:41.781Z,97.49
2022-08-25T00:05:41.928Z,97.44
2022-08-25T00:06:41.843Z,97.54
2022-08-25T00:07:41.835Z,97.64
2022-08-25T00:08:41.733Z,97.64
2022-08-25T00:09:41.720Z,97.85
2022-08-25T00:10:41.793Z,97.74
2022-08-25T00:11:41.773Z,97.74
2022-08-25T00:12:41.774Z,97.54
2022-08-25T00:13:41.677Z,97.74
2022-08-25T00:14:41.691Z,97.94
2022-08-25T00:15:41.769Z,97.74
2022-08-25T00:16:41.695Z,97.74
2022-08-25T00:17:41.697Z,97.85
2022-08-25T00:18:41.622Z,97.94
2022-08-25T00:19:41.622Z,98.05
2022-08-25T00:20:43.306Z,98.05
2022-08-25T00:21:42.547Z,98.05
2022-08-25T00:22:41.547Z,98.25
2022-08-25T00:23:41.544Z,98.19
2022-08-25T00:24:41.555Z,98.19
2022-08-25T00:25:41.505Z,98.25
2022-08-25T00:26:42.516Z,98.19
2022-08-25T00:27:41.569Z,98.09
2022-08-25T00:28:41.471Z,98.09
2022-08-25T00:29:41.475Z,98.19
2022-08-25T00:30:41.533Z,98.19
2022-08-25T00:31:41.567Z,98.39
2022-08-25T00:32:42.428Z,98.39
2022-08-25T00:33:42.436Z,98.39
2022-08-25T00:34:41.417Z,98.39
2022-08-25T00:35:41.368Z,98.50
2022-08-25T00:36:41.429Z,98.50
2022-08-25T00:37:42.366Z,98.39
2022-08-25T00:38:42.368Z,98.39
2022-08-25T00:39:41.349Z,98.29
2022-08-25T00:40:41.347Z,98.39
2022-08-25T00:41:41.359Z,98.60
2022-08-25T00:42:41.380Z,98.60
2022-08-25T00:43:41.379Z,98.90
2022-08-25T00:44:42.301Z,98.90
2022-08-25T00:45:41.319Z,98.90
2022-08-25T00:46:41.436Z,99.01
2022-08-25T00:47:41.305Z,99.01
2022-08-25T00:48:41.313Z,98.90
2022-08-25T00:49:41.221Z,98.90
2022-08-25T00:50:44.424Z,98.80
2022-08-25T00:51:41.231Z,98.80
2022-08-25T00:52:41.234Z,99.01
2022-08-25T00:53:41.261Z,99.01
2022-08-25T00:54:41.144Z,99.10
2022-08-25T00:55:41.191Z,99.01
2022-08-25T00:56:41.162Z,99.01
2022-08-25T00:57:41.170Z,99.10
2022-08-25T00:58:41.194Z,99.30
2022-08-25T00:59:41.073Z,99.30
2022-08-25T01:00:41.070Z,99.51
2022-08-25T01:01:41.089Z,99.51
2022-08-25T01:02:41.195Z,99.61
2022-08-25T01:03:41.103Z,99.61
2022-08-25T01:04:43.726Z,99.51
2022-08-25T01:05:42.065Z,99.51
2022-08-25T01:06:40.984Z,99.61
2022-08-25T01:07:40.963Z,99.51
2022-08-25T01:08:40.955Z,99.61
2022-08-25T01:09:40.926Z,99.71
2022-08-25T01:10:40.963Z,99.51
2022-08-25T01:11:40.916Z,99.51
2022-08-25T01:12:40.976Z,99.61
2022-08-25T01:13:40.975Z,99.51
2022-08-25T01:14:41.910Z,99.51
2022-08-25T01:15:40.988Z,99.51
2022-08-25T01:16:40.854Z,99.51
2022-08-25T01:17:40.900Z,99.41
2022-08-25T01:18:40.908Z,99.41
2022-08-25T01:19:40.811Z,99.51
2022-08-25T01:20:40.797Z,99.51
2022-08-25T01:21:40.777Z,99.61
2022-08-25T01:22:40.836Z,99.51
2022-08-25T01:23:40.846Z,99.61
2022-08-25T01:24:40.767Z,99.51
2022-08-25T01:25:40.740Z,99.61
2022-08-25T01:26:40.764Z,99.71
2022-08-25T01:27:40.769Z,99.61
2022-08-25T01:28:40.769Z,99.71
2022-08-25T01:29:40.679Z,99.71
2022-08-25T01:30:43.921Z,99.81
2022-08-25T01:31:40.681Z,99.81
2022-08-25T01:32:40.659Z,99.81
2022-08-25T01:33:40.710Z,99.71
2022-08-25T01:34:40.700Z,99.81
2022-08-25T01:35:40.640Z,99.71
2022-08-25T01:37:01.599Z,99.81
2022-08-25T01:37:40.589Z,99.81
2022-08-25T01:38:40.646Z,99.81
2022-08-25T01:39:40.634Z,99.91
2022-08-25T01:40:40.593Z,99.91
2022-08-25T01:41:40.540Z,99.91
2022-08-25T01:42:42.632Z,99.99
2022-08-25T01:43:40.568Z,99.99
2022-08-25T01:44:40.581Z,99.91
2022-08-25T01:45:40.510Z,99.91
2022-08-25T01:46:40.502Z,99.91
2022-08-25T01:47:40.452Z,99.81
2022-08-25T01:48:40.491Z,99.71
2022-08-25T01:49:40.504Z,99.81
2022-08-25T01:50:40.484Z,99.71
2022-08-25T01:51:40.426Z,99.81
2022-08-25T01:52:40.392Z,99.81
2022-08-25T01:53:42.392Z,99.91
2022-08-25T01:54:40.447Z,99.91
2022-08-25T01:55:40.383Z,99.81
2022-08-25T01:56:40.343Z,99.81
2022-08-25T01:57:40.323Z,99.81
2022-08-25T01:58:40.376Z,99.91
2022-08-25T01:59:40.283Z,99.91
2022-08-25T02:00:40.294Z,99.91
2022-08-25T02:01:40.324Z,99.81
2022-08-25T02:02:42.601Z,99.71
2022-08-25T02:03:42.030Z,99.61
2022-08-25T02:04:40.781Z,99.61
2022-08-25T02:05:40.236Z,99.51
2022-08-25T02:06:41.252Z,99.41
2022-08-25T02:07:40.216Z,99.30
2022-08-25T02:08:40.238Z,99.30
2022-08-25T02:09:40.239Z,99.21
2022-08-25T02:10:40.268Z,99.30
2022-08-25T02:11:41.167Z,99.30
2022-08-25T02:12:40.126Z,99.41
2022-08-25T02:13:41.176Z,99.51
2022-08-25T02:14:40.173Z,99.51
2022-08-25T02:15:41.140Z,99.51
2022-08-25T02:17:50.281Z,99.61
2022-08-25T02:21:08.983Z,99.71
2022-08-25T02:22:34.997Z,99.71
2022-08-25T02:23:16.456Z,99.81
2022-08-25T02:24:08.935Z,99.81
2022-08-25T02:26:10.180Z,99.81
2022-08-25T02:27:17.661Z,99.71
2022-08-25T02:28:10.145Z,99.81
2022-08-25T02:29:17.627Z,99.81
2022-08-25T02:30:18.814Z,99.81
2022-08-25T02:31:31.164Z,99.81
2022-08-25T02:32:10.094Z,99.71
2022-08-25T02:34:26.951Z,99.81
2022-08-25T02:35:27.031Z,99.71
2022-08-25T02:36:27.921Z,99.71
2022-08-25T02:38:37.136Z,99.81
2022-08-25T02:39:37.127Z,99.71
2022-08-25T02:40:37.194Z,99.81
2022-08-25T02:41:37.167Z,99.71
2022-08-25T02:44:58.749Z,99.91
2022-08-25T02:46:17.087Z,99.91
2022-08-25T02:46:58.809Z,99.91
2022-08-25T02:47:58.729Z,99.81
2022-08-25T02:48:58.741Z,99.81
2022-08-25T02:50:24.980Z,99.81
2022-08-25T02:50:58.674Z,99.81
2022-08-25T02:51:58.861Z,99.81
2022-08-25T02:53:06.161Z,99.91
2022-08-25T02:53:58.660Z,99.91
2022-08-25T02:54:58.721Z,99.91
2022-08-25T02:55:58.782Z,99.81
2022-08-25T02:56:58.681Z,99.71
2022-08-25T02:57:58.601Z,99.71
2022-08-25T02:58:58.611Z,99.61
2022-08-25T02:59:58.620Z,99.76
2022-08-25T03:00:58.689Z,99.71
2022-08-25T03:02:20.543Z,99.86
2022-08-25T03:04:09.732Z,99.99
2022-08-25T03:05:09.842Z,99.99
2022-08-25T03:06:10.742Z,99.99
2022-08-25T03:07:09.713Z,99.99
2022-08-25T03:08:31.743Z,99.99
2022-08-25T03:09:17.176Z,99.99
2022-08-25T03:10:18.344Z,99.99
2022-08-25T03:12:19.886Z,99.99
2022-08-25T03:13:27.412Z,99.99
2022-08-25T03:15:30.531Z,99.76
2022-08-25T03:16:30.193Z,99.76
2022-08-25T03:17:29.142Z,99.66
2022-08-25T03:18:52.803Z,99.55
2022-08-25T03:19:29.121Z,99.55
2022-08-25T03:20:33.294Z,99.46
2022-08-25T03:21:29.079Z,99.35
2022-08-25T03:22:29.063Z,99.35
2022-08-25T03:23:30.118Z,99.35
2022-08-25T03:24:29.084Z,99.35
2022-08-25T03:25:29.035Z,99.46
2022-08-25T03:26:51.024Z,99.60
2022-08-25T03:27:29.015Z,99.60
2022-08-25T03:28:30.131Z,99.60
2022-08-25T03:29:29.033Z,99.70
2022-08-25T03:30:28.965Z,99.80
2022-08-25T03:31:29.081Z,99.80
2022-08-25T03:32:28.947Z,99.80
2022-08-25T03:33:28.954Z,99.91
2022-08-25T03:34:28.899Z,99.91
2022-08-25T03:35:29.015Z,99.99
2022-08-25T03:36:28.874Z,99.99
2022-08-25T03:37:28.854Z,99.99
2022-08-25T03:38:28.888Z,99.99
2022-08-25T03:39:28.897Z,99.91
2022-08-25T03:40:30.285Z,99.91
2022-08-25T03:41:29.121Z,99.80
2022-08-25T03:42:28.916Z,99.91
2022-08-25T03:44:39.014Z,99.80
2022-08-25T03:45:39.044Z,99.91
2022-08-25T03:46:38.997Z,99.91
2022-08-25T03:47:38.964Z,99.99
2022-08-25T03:48:38.965Z,99.99
2022-08-25T03:49:38.946Z,99.99
2022-08-25T04:03:32.688Z,99.91
2022-08-25T04:04:32.681Z,99.91
2022-08-25T04:05:32.972Z,99.70
2022-08-25T04:06:32.651Z,99.70
2022-08-25T04:07:32.648Z,99.80
2022-08-25T04:08:32.631Z,99.80
2022-08-25T04:09:36.426Z,99.80
2022-08-25T04:10:32.619Z,99.70
2022-08-25T04:11:32.579Z,99.95
2022-08-25T04:12:32.569Z,99.99
2022-08-25T04:13:32.572Z,99.99
2022-08-25T04:14:32.550Z,99.99
2022-08-25T04:15:32.533Z,99.99
2022-08-25T04:16:32.578Z,99.99
2022-08-25T04:17:32.521Z,99.99
2022-08-25T04:18:32.503Z,99.99
2022-08-25T04:19:32.482Z,99.99
2022-08-25T04:20:32.472Z,99.99
2022-08-25T04:21:32.465Z,99.99
2022-08-25T04:22:32.452Z,99.99
2022-08-25T04:23:32.438Z,99.99
2022-08-25T04:24:32.411Z,99.99
2022-08-25T04:25:32.421Z,99.99
2022-08-25T04:26:32.382Z,99.99
2022-08-25T04:27:32.392Z,99.99
2022-08-25T04:28:32.350Z,99.99
2022-08-25T04:29:32.373Z,99.99
2022-08-25T04:30:32.340Z,99.99
2022-08-25T04:31:32.370Z,99.99
2022-08-25T04:32:32.312Z,99.99
2022-08-25T04:33:32.303Z,99.99
2022-08-25T04:34:32.281Z,99.99
2022-08-25T04:35:32.285Z,99.99
2022-08-25T04:36:32.254Z,99.99
2022-08-25T04:37:32.253Z,99.99
2022-08-25T04:38:32.235Z,99.99
2022-08-25T04:39:32.217Z,99.99
2022-08-25T04:40:32.258Z,99.99
2022-08-25T04:41:32.212Z,99.99
2022-08-25T04:42:32.186Z,99.99
2022-08-25T04:43:32.164Z,99.99
2022-08-25T04:44:32.159Z,99.99
2022-08-25T04:45:32.209Z,99.99
2022-08-25T04:46:32.107Z,99.99
2022-08-25T04:47:32.109Z,99.99
2022-08-25T04:48:32.094Z,99.99
2022-08-25T04:49:32.095Z,99.99
2022-08-25T04:50:32.067Z,99.99
2022-08-25T04:51:32.066Z,99.99
2022-08-25T04:52:32.057Z,99.99
2022-08-25T04:53:32.037Z,99.99
2022-08-25T04:54:37.022Z,99.99
2022-08-25T04:55:33.020Z,99.99
2022-08-25T04:56:31.999Z,99.99
2022-08-25T04:57:31.991Z,99.99
2022-08-25T04:58:31.968Z,99.99
2022-08-25T04:59:31.960Z,99.99
2022-08-25T05:00:31.958Z,99.99
2022-08-25T05:01:31.928Z,99.99
2022-08-25T05:02:31.918Z,99.99
2022-08-25T05:03:31.909Z,99.99
2022-08-25T05:04:31.975Z,99.99
2022-08-25T05:05:31.893Z,99.99
2022-08-25T05:06:31.863Z,99.99
2022-08-25T05:07:31.856Z,99.99
2022-08-25T05:08:31.829Z,99.99
2022-08-25T05:09:32.641Z,99.99
2022-08-25T05:10:31.826Z,99.99
2022-08-25T05:11:31.800Z,99.99
2022-08-25T05:12:31.781Z,99.99
2022-08-25T05:13:31.782Z,99.99
2022-08-25T05:14:31.938Z,99.99
2022-08-25T05:15:31.778Z,99.99
2022-08-25T05:16:31.809Z,99.99
2022-08-25T05:17:31.719Z,99.99
2022-08-25T05:18:31.703Z,99.99
2022-08-25T05:19:31.691Z,99.99
2022-08-25T05:20:31.694Z,99.99
2022-08-25T05:21:31.690Z,99.99
2022-08-25T05:22:31.655Z,99.99
2022-08-25T05:23:31.643Z,99.99
2022-08-25T05:24:31.632Z,99.99
2022-08-25T05:25:31.624Z,99.99
2022-08-25T05:26:31.585Z,99.99
2022-08-25T05:27:31.593Z,99.99
2022-08-25T05:28:31.587Z,99.99
2022-08-25T05:29:31.566Z,99.99
2022-08-25T05:30:31.556Z,99.99
2022-08-25T05:31:31.584Z,99.99
2022-08-25T05:32:31.516Z,99.99
2022-08-25T05:33:32.149Z,99.99
2022-08-25T05:34:31.509Z,99.99
2022-08-25T05:35:31.506Z,99.99
2022-08-25T05:36:31.467Z,99.99
2022-08-25T05:37:31.454Z,99.99
2022-08-25T05:38:31.447Z,99.99
2022-08-25T05:39:31.435Z,99.99
2022-08-25T05:40:31.469Z,99.99
2022-08-25T05:41:31.417Z,99.99
2022-08-25T05:42:31.390Z,99.99
2022-08-25T05:43:31.378Z,99.99
2022-08-25T05:44:31.358Z,99.99
2022-08-25T05:45:31.384Z,99.99
2022-08-25T05:46:31.639Z,99.99
2022-08-25T05:47:31.328Z,99.99
2022-08-25T05:48:31.307Z,99.99
2022-08-25T05:49:31.301Z,99.99
2022-08-25T05:50:31.298Z,99.99
2022-08-25T05:51:31.279Z,99.99
2022-08-25T05:52:31.272Z,99.99
2022-08-25T05:53:31.247Z,99.99
2022-08-25T05:54:31.219Z,99.99
2022-08-25T05:55:31.222Z,99.99
2022-08-25T05:56:31.220Z,99.99
2022-08-25T05:57:31.194Z,99.99
2022-08-25T05:58:31.162Z,99.99
2022-08-25T05:59:31.160Z,99.99
2022-08-25T06:00:31.159Z,99.99
2022-08-25T06:01:31.167Z,99.99
2022-08-25T06:02:31.122Z,99.99
2022-08-25T06:03:31.174Z,99.99
2022-08-25T06:04:31.105Z,99.99
2022-08-25T06:05:31.094Z,99.99
2022-08-25T06:06:31.063Z,99.99
2022-08-25T06:07:31.062Z,99.99
2022-08-25T06:08:31.043Z,99.94
2022-08-25T06:09:31.038Z,99.84
2022-08-25T06:10:31.023Z,99.74
2022-08-25T06:11:31.003Z,99.74
2022-08-25T06:12:30.993Z,99.74
2022-08-25T06:13:30.975Z,99.59
2022-08-25T06:14:30.964Z,99.49
2022-08-25T06:15:30.975Z,99.29
2022-08-25T06:16:31.103Z,99.19
2022-08-25T06:17:30.926Z,99.08
2022-08-25T06:18:30.913Z,98.88
2022-08-25T06:19:30.906Z,98.74
2022-08-25T06:20:30.906Z,98.74
2022-08-25T06:21:30.886Z,98.64
2022-08-25T06:22:30.857Z,98.64
2022-08-25T06:23:30.848Z,98.54
2022-08-25T06:24:30.831Z,98.33
2022-08-25T06:25:30.839Z,98.09
2022-08-25T06:26:30.807Z,97.89
2022-08-25T06:27:30.790Z,97.69
2022-08-25T06:28:30.767Z,97.28
2022-08-25T06:29:30.778Z,97.08
2022-08-25T06:30:30.848Z,97.03
2022-08-25T06:31:30.786Z,96.83
2022-08-25T06:32:30.728Z,96.23
2022-08-25T06:33:30.714Z,95.88
2022-08-25T06:34:30.702Z,95.28
2022-08-25T06:35:30.709Z,95.58
2022-08-25T06:36:31.679Z,95.68
2022-08-25T06:37:30.659Z,95.43
2022-08-25T06:38:30.653Z,95.23
2022-08-25T06:39:30.640Z,94.73
2022-08-25T06:40:30.670Z,94.73
2022-08-25T06:41:36.967Z,94.33
2022-08-25T06:42:31.589Z,94.13
2022-08-25T06:43:30.621Z,93.88
2022-08-25T06:44:30.571Z,93.78
2022-08-25T06:45:30.571Z,93.48
2022-08-25T06:46:35.878Z,93.18
2022-08-25T06:47:31.548Z,92.83
2022-08-25T06:48:30.516Z,92.83
2022-08-25T06:49:35.583Z,92.13
2022-08-25T06:50:31.498Z,91.93
2022-08-25T06:51:30.481Z,91.78
2022-08-25T06:52:30.454Z,92.29
2022-08-25T06:53:30.451Z,92.08
2022-08-25T06:54:30.436Z,91.78
2022-08-25T06:55:30.444Z,91.64
2022-08-25T06:56:30.414Z,90.94
2022-08-25T06:57:30.394Z,91.64
2022-08-25T06:58:30.391Z,91.03
2022-08-25T06:59:32.207Z,91.24
2022-08-25T07:00:31.596Z,91.09
2022-08-25T07:01:30.373Z,90.89
2022-08-25T07:02:30.385Z,90.79
2022-08-25T07:03:31.343Z,90.29
2022-08-25T07:04:30.309Z,89.99
2022-08-25T07:05:45.438Z,90.65
2022-08-25T07:06:31.276Z,89.45
2022-08-25T07:07:42.832Z,89.85
2022-08-25T07:08:31.256Z,89.25
2022-08-25T07:09:30.259Z,89.34
2022-08-25T07:10:30.234Z,88.80
2022-08-25T07:11:30.228Z,88.90
2022-08-25T07:12:30.196Z,89.11
2022-08-25T07:13:30.208Z,88.60
2022-08-25T07:14:30.168Z,88.20
2022-08-25T07:15:30.192Z,87.36
2022-08-25T07:16:30.992Z,87.86
2022-08-25T07:17:30.149Z,87.46
2022-08-25T07:18:30.213Z,87.55
2022-08-25T07:19:30.118Z,86.96
2022-08-25T07:20:31.126Z,86.52
2022-08-25T07:21:33.524Z,86.41
2022-08-25T07:22:31.110Z,86.11
2022-08-25T07:23:30.075Z,86.32
2022-08-25T07:24:30.053Z,85.71
2022-08-25T07:25:30.062Z,86.18
2022-08-25T07:26:38.758Z,85.47
2022-08-25T07:27:31.043Z,85.27
2022-08-25T07:28:30.005Z,85.37
2022-08-25T07:29:32.092Z,85.17
2022-08-25T07:30:29.995Z,85.37
2022-08-25T07:31:30.234Z,85.17
2022-08-25T07:32:29.951Z,85.27
2022-08-25T07:33:29.936Z,85.68
2022-08-25T07:34:29.925Z,84.87
2022-08-25T07:35:37.390Z,84.57
2022-08-25T07:36:30.889Z,85.47
2022-08-25T07:37:47.835Z,85.17
2022-08-25T07:38:30.880Z,85.27
2022-08-25T07:39:29.853Z,84.97
2022-08-25T07:40:30.902Z,84.67
2022-08-25T07:41:29.824Z,84.73
2022-08-25T07:42:29.803Z,84.83
2022-08-25T07:43:29.805Z,84.63
2022-08-25T07:44:29.785Z,84.93
2022-08-25T07:45:29.789Z,84.23
2022-08-25T07:46:30.804Z,84.43
2022-08-25T07:47:29.736Z,84.33
2022-08-25T07:48:29.733Z,84.03
2022-08-25T07:49:36.174Z,85.03
2022-08-25T07:50:30.719Z,84.73
2022-08-25T07:51:30.678Z,84.59
2022-08-25T07:52:29.686Z,84.29
2022-08-25T07:53:29.683Z,83.99
2022-08-25T07:54:34.670Z,84.09
2022-08-25T07:55:30.659Z,84.39
2022-08-25T07:56:29.618Z,84.39
2022-08-25T07:57:29.623Z,84.19
2022-08-25T07:58:29.597Z,83.99
2022-08-25T07:59:29.580Z,83.79
2022-08-25T08:00:29.579Z,83.79
2022-08-25T08:01:29.599Z,84.05
2022-08-25T08:02:29.552Z,83.55
2022-08-25T08:03:45.224Z,83.15
2022-08-25T08:04:30.618Z,83.25
2022-08-25T08:05:29.507Z,83.15
2022-08-25T08:06:29.497Z,82.95
2022-08-25T08:07:43.133Z,83.05
2022-08-25T08:08:30.452Z,82.45
2022-08-25T08:09:29.453Z,82.65
2022-08-25T08:11:30.427Z,82.21
2022-08-25T08:12:29.404Z,82.91
2022-08-25T08:13:29.384Z,82.51
2022-08-25T08:14:29.376Z,82.11
2022-08-25T08:15:30.504Z,82.01
2022-08-25T08:16:29.395Z,81.92
2022-08-25T08:17:29.336Z,81.51
2022-08-25T08:18:29.316Z,81.71
2022-08-25T08:19:29.304Z,81.48
2022-08-25T08:20:30.307Z,80.77
2022-08-25T08:21:30.294Z,80.98
2022-08-25T08:22:29.267Z,81.18
2022-08-25T08:23:29.247Z,80.68
2022-08-25T08:24:43.997Z,81.37
2022-08-25T08:25:30.239Z,80.98
2022-08-25T08:26:48.351Z,80.77
2022-08-25T08:27:31.198Z,80.44
2022-08-25T08:28:29.177Z,80.74
2022-08-25T08:29:29.169Z,82.03
2022-08-25T08:30:29.183Z,80.14
2022-08-25T08:31:29.206Z,80.24
2022-08-25T08:32:40.624Z,80.74
2022-08-25T08:33:30.120Z,80.24
2022-08-25T08:34:29.101Z,79.84
2022-08-25T08:35:30.127Z,79.74
2022-08-25T08:36:29.090Z,80.80
2022-08-25T08:37:29.068Z,79.80
2022-08-25T08:38:29.061Z,79.80
2022-08-25T08:39:29.030Z,79.80
2022-08-25T08:40:29.070Z,79.10
2022-08-25T08:41:29.020Z,79.40
2022-08-25T08:42:29.003Z,78.90
2022-08-25T08:43:33.219Z,78.90
2022-08-25T08:44:28.980Z,78.86
2022-08-25T08:45:28.969Z,78.67
2022-08-25T08:46:29.014Z,78.37
2022-08-25T08:47:28.919Z,77.87
2022-08-25T08:48:29.047Z,78.37
2022-08-25T08:49:28.962Z,77.43
2022-08-25T08:50:32.952Z,78.03
2022-08-25T08:51:33.085Z,77.13
2022-08-25T08:52:28.885Z,77.83
2022-08-25T08:53:28.853Z,77.53
2022-08-25T08:54:30.824Z,77.53
2022-08-25T08:55:28.816Z,76.60
2022-08-25T08:56:30.679Z,76.50
2022-08-25T08:57:28.788Z,77.00
2022-08-25T08:58:28.783Z,75.90
2022-08-25T08:59:30.176Z,77.36
2022-08-25T09:00:28.842Z,76.06
2022-08-25T09:01:28.817Z,74.73
2022-08-25T09:02:49.888Z,75.13
2022-08-25T09:03:29.778Z,75.13
2022-08-25T09:04:28.703Z,75.53
2022-08-25T09:05:29.790Z,75.99
2022-08-25T09:06:28.688Z,74.60
2022-08-25T09:07:28.655Z,75.65
2022-08-25T09:08:28.649Z,73.07
2022-08-25T09:09:28.690Z,73.14
2022-08-25T09:10:28.634Z,71.45
2022-08-25T09:11:28.745Z,71.45
2022-08-25T09:12:28.609Z,71.55
2022-08-25T09:13:28.570Z,71.45
2022-08-25T09:14:30.615Z,71.75
2022-08-25T09:15:28.591Z,71.34
2022-08-25T09:16:34.066Z,71.58
2022-08-25T09:17:29.522Z,71.98
2022-08-25T09:18:28.502Z,71.78
2022-08-25T09:19:28.536Z,71.58
2022-08-25T09:20:29.540Z,71.31
2022-08-25T09:21:28.601Z,72.01
2022-08-25T09:22:35.292Z,72.81
2022-08-25T09:23:29.573Z,71.91
2022-08-25T09:24:28.445Z,72.61
2022-08-25T09:25:48.684Z,71.91
2022-08-25T09:26:29.516Z,72.55
2022-08-25T09:27:28.404Z,73.44
2022-08-25T09:28:28.397Z,72.61
2022-08-25T09:29:28.366Z,72.51
2022-08-25T09:30:28.354Z,71.81
2022-08-25T09:31:29.687Z,71.61
2022-08-25T09:32:31.575Z,72.01
2022-08-25T09:33:28.341Z,71.58
2022-08-25T09:34:28.337Z,71.38
2022-08-25T09:35:28.299Z,72.08
2022-08-25T09:36:28.287Z,70.78
2022-08-25T09:37:28.336Z,72.17
2022-08-25T09:38:28.266Z,71.78
2022-08-25T09:39:28.247Z,71.78
2022-08-25T09:40:28.309Z,71.48
2022-08-25T09:41:28.278Z,71.25
2022-08-25T09:42:28.226Z,72.34
2022-08-25T09:43:28.190Z,71.34
2022-08-25T09:44:28.179Z,70.95
2022-08-25T09:45:28.189Z,71.08
2022-08-25T09:46:28.203Z,71.68
2022-08-25T09:47:28.202Z,72.17
2022-08-25T10:03:49.795Z,67.94
2022-08-25T10:04:49.833Z,67.84
2022-08-25T10:05:52.499Z,68.33
2022-08-25T10:06:50.742Z,68.53
2022-08-25T10:07:51.985Z,67.34
2022-08-25T10:08:49.725Z,68.13
2022-08-25T10:09:49.694Z,67.54
2022-08-25T10:10:49.712Z,68.04
2022-08-25T10:11:50.682Z,68.57
2022-08-25T10:12:51.445Z,67.97
2022-08-25T10:13:49.644Z,68.46
2022-08-25T10:14:49.648Z,68.86
2022-08-25T10:15:50.694Z,68.66
2022-08-25T10:16:50.655Z,69.26
2022-08-25T10:17:49.595Z,68.96
2022-08-25T10:18:49.597Z,68.40
2022-08-25T10:19:49.574Z,69.06
2022-08-25T10:20:49.589Z,68.43
2022-08-25T10:21:50.540Z,68.63
2022-08-25T10:23:00.197Z,67.34
2022-08-25T10:23:50.518Z,67.14
2022-08-25T10:24:49.496Z,68.04
2022-08-25T10:25:57.806Z,67.94
2022-08-25T10:26:50.476Z,68.13
2022-08-25T10:27:49.458Z,67.34
2022-08-25T10:28:49.477Z,67.74
2022-08-25T10:29:49.448Z,68.17
2022-08-25T10:30:50.492Z,67.27
2022-08-25T10:31:49.408Z,67.38
2022-08-25T10:32:49.398Z,67.47
2022-08-25T10:33:50.346Z,67.38
2022-08-25T10:34:51.654Z,67.90
2022-08-25T10:35:49.370Z,68.00
2022-08-25T10:36:49.353Z,68.57
2022-08-25T10:37:49.332Z,66.85
2022-08-25T10:38:49.321Z,67.90
2022-08-25T10:39:55.521Z,65.89
2022-08-25T10:40:50.336Z,65.69
2022-08-25T10:41:49.303Z,65.36
2022-08-25T10:42:49.280Z,65.95
2022-08-25T10:43:49.266Z,64.04
2022-08-25T10:44:49.243Z,63.88
2022-08-25T10:45:49.274Z,64.37
2022-08-25T10:46:49.226Z,64.40
2022-08-25T10:47:49.203Z,64.47
2022-08-25T10:48:49.192Z,65.20
2022-08-25T10:49:49.975Z,63.92
2022-08-25T10:50:49.309Z,62.50
2022-08-25T10:51:51.260Z,65.30
2022-08-25T10:52:49.146Z,63.49
2022-08-25T10:53:49.185Z,61.49
2022-08-25T10:54:49.190Z,60.41
2022-08-25T10:55:49.105Z,59.98
2022-08-25T10:56:49.101Z,60.38
2022-08-25T10:57:49.078Z,59.29
2022-08-25T10:58:49.101Z,61.56
2022-08-25T10:59:49.059Z,60.08
2022-08-25T11:00:49.028Z,59.52
2022-08-25T11:01:53.461Z,61.59
2022-08-25T11:02:49.020Z,59.94
2022-08-25T11:03:49.009Z,59.97
2022-08-25T11:04:49.013Z,60.89
2022-08-25T11:05:48.987Z,61.68
2022-08-25T11:06:53.050Z,61.18
2022-08-25T11:07:49.961Z,60.59
2022-08-25T11:08:48.929Z,60.36
2022-08-25T11:09:49.326Z,60.86
2022-08-25T11:10:48.920Z,60.30
2022-08-25T11:11:48.938Z,60.19
2022-08-25T11:12:48.879Z,60.89
2022-08-25T11:13:49.878Z,60.19
2022-08-25T11:14:48.853Z,61.05
2022-08-25T11:16:06.636Z,59.64
2022-08-25T11:16:49.864Z,59.45
2022-08-25T11:17:50.156Z,59.74
2022-08-25T11:18:49.802Z,59.02
2022-08-25T11:19:48.776Z,58.83
2022-08-25T11:20:48.797Z,57.91
2022-08-25T11:21:48.756Z,59.00
2022-08-25T11:22:48.753Z,58.89
2022-08-25T11:23:49.726Z,58.73
2022-08-25T11:24:48.733Z,59.91
2022-08-25T11:25:48.724Z,58.92
2022-08-25T11:26:48.716Z,58.53
2022-08-25T11:27:48.690Z,58.53
2022-08-25T11:28:48.665Z,58.73
2022-08-25T11:29:48.647Z,58.04
2022-08-25T11:30:48.719Z,58.80
2022-08-25T11:31:52.999Z,57.29
2022-08-25T11:32:50.607Z,57.29
2022-08-25T11:33:48.608Z,57.29
2022-08-25T11:34:48.595Z,58.08
2022-08-25T11:35:48.594Z,56.70
2022-08-25T11:36:48.589Z,56.92
2022-08-25T11:37:48.566Z,57.15
2022-08-25T11:38:48.535Z,57.84
2022-08-25T11:39:48.557Z,58.56
2022-08-25T11:40:50.282Z,58.06
2022-08-25T11:41:48.500Z,58.65
2022-08-25T11:42:48.481Z,58.59
2022-08-25T11:43:48.469Z,59.08
2022-08-25T11:44:53.344Z,60.17
2022-08-25T11:45:54.196Z,59.31
2022-08-25T11:46:49.433Z,59.60
2022-08-25T11:47:48.420Z,60.00
2022-08-25T11:48:48.434Z,59.60
2022-08-25T11:49:49.396Z,59.93
2022-08-25T11:50:48.401Z,60.42
2022-08-25T11:51:48.420Z,60.82
2022-08-25T11:52:48.353Z,61.02
2022-08-25T11:53:48.341Z,61.31
2022-08-25T11:54:48.333Z,60.13
2022-08-25T11:55:48.315Z,60.22
2022-08-25T11:56:48.323Z,60.94
2022-08-25T11:57:51.609Z,60.55
2022-08-25T11:58:49.740Z,61.54
2022-08-25T11:59:48.254Z,60.55
2022-08-25T12:00:48.274Z,60.35
2022-08-25T12:01:48.235Z,61.05
2022-08-25T12:02:48.234Z,60.65
2022-08-25T12:03:48.233Z,61.44
2022-08-25T12:04:48.242Z,60.65
2022-08-25T12:05:48.238Z,60.03
2022-08-25T12:06:48.184Z,60.75
2022-08-25T12:07:48.157Z,60.55
2022-08-25T12:08:48.164Z,60.45
2022-08-25T12:09:48.138Z,61.34
2022-08-25T12:10:48.148Z,61.31
2022-08-25T12:11:48.127Z,60.72
2022-08-25T12:12:48.106Z,60.39
2022-08-25T12:13:48.099Z,58.91
2022-08-25T12:14:48.080Z,58.46
2022-08-25T12:15:48.059Z,57.45
2022-08-25T12:16:48.059Z,56.92
2022-08-25T12:17:48.047Z,57.17
2022-08-25T12:18:50.343Z,55.73
2022-08-25T12:19:47.999Z,53.91
2022-08-25T12:20:48.021Z,53.29
2022-08-25T12:21:47.990Z,51.98
2022-08-25T12:22:47.962Z,51.15
2022-08-25T12:23:52.834Z,50.51
2022-08-25T12:24:48.942Z,49.48
2022-08-25T12:25:47.942Z,48.63
2022-08-25T12:26:47.924Z,47.75
2022-08-25T12:27:47.914Z,45.15
2022-08-25T12:28:47.882Z,43.54
2022-08-25T12:29:47.865Z,43.23
2022-08-25T12:30:47.930Z,42.53
2022-08-25T12:31:47.860Z,42.41
2022-08-25T12:32:47.845Z,41.96
2022-08-25T12:33:47.827Z,42.81
2022-08-25T12:34:47.807Z,41.13
2022-08-25T12:35:47.829Z,42.84
2022-08-25T12:36:47.795Z,43.29
2022-08-25T12:37:47.777Z,44.43
2022-08-25T12:38:52.288Z,45.84
2022-08-25T12:39:47.769Z,47.47
2022-08-25T12:40:47.739Z,48.13
2022-08-25T12:41:48.769Z,50.07
2022-08-25T12:42:47.722Z,51.20
2022-08-25T12:43:47.687Z,52.55
2022-08-25T12:44:47.745Z,53.78
2022-08-25T12:45:47.738Z,55.49
2022-08-25T12:46:48.340Z,56.48
2022-08-25T12:47:47.658Z,54.91
2022-08-25T12:48:47.643Z,53.19
2022-08-25T12:49:47.616Z,53.58
2022-08-25T12:50:47.649Z,54.10
2022-08-25T12:51:48.508Z,54.43
2022-08-25T12:52:47.593Z,54.94
2022-08-25T12:53:47.571Z,55.36
2022-08-25T12:54:47.882Z,58.02
2022-08-25T12:55:47.562Z,55.16
2022-08-25T12:56:47.636Z,53.09
2022-08-25T12:57:47.533Z,49.55
2022-08-25T12:58:59.903Z,47.41
2022-08-25T12:59:48.853Z,46.26
2022-08-25T13:00:47.574Z,44.46
2022-08-25T13:01:48.562Z,44.13
2022-08-25T13:02:52.243Z,43.23
2022-08-25T13:03:48.651Z,42.60
2022-08-25T13:04:47.578Z,43.34
2022-08-25T13:05:47.615Z,42.74
2022-08-25T13:06:47.542Z,40.87
2022-08-25T13:07:47.546Z,39.57
2022-08-25T13:08:48.052Z,38.96
2022-08-25T13:09:47.445Z,38.68
2022-08-25T13:10:47.447Z,38.50
2022-08-25T13:11:48.097Z,39.28
2022-08-25T13:12:47.358Z,39.18
2022-08-25T13:13:47.456Z,39.06
2022-08-25T13:14:48.860Z,39.72
2022-08-25T13:15:47.399Z,38.56
2022-08-25T13:16:47.305Z,37.57
2022-08-25T13:17:47.381Z,38.81
2022-08-25T13:18:51.680Z,37.55
2022-08-25T13:19:48.316Z,37.90
2022-08-25T13:20:47.352Z,40.01
2022-08-25T13:21:47.231Z,41.06
2022-08-25T13:22:47.311Z,42.71
2022-08-25T13:23:47.322Z,44.34
2022-08-25T13:24:47.461Z,45.37
2022-08-25T13:25:47.257Z,47.01
2022-08-25T13:26:48.662Z,48.43
2022-08-25T13:27:47.254Z,48.86
2022-08-25T13:28:50.446Z,50.16
2022-08-25T13:29:47.275Z,50.19
2022-08-25T13:30:47.160Z,51.69
2022-08-25T13:31:47.117Z,51.52
2022-08-25T13:32:47.111Z,51.91
2022-08-25T13:33:47.076Z,51.69
2022-08-25T13:34:47.127Z,49.33
2022-08-25T13:35:47.798Z,47.47